createdAt,value
2019-05-15T00:00:12.637Z,100.00
2019-05-15T00:02:41.080Z,100.00
2019-05-15T00:05:09.557Z,100.00
2019-05-15T00:07:39.217Z,100.00
2019-05-15T00:10:09.141Z,100.00
2019-05-15T00:12:39.606Z,100.00
2019-05-15T00:15:09.261Z,100.00
2019-05-15T00:17:39.330Z,100.00
2019-05-15T00:20:10.025Z,100.00
2019-05-15T00:22:39.068Z,100.00
2019-05-15T00:25:09.294Z,100.00
2019-05-15T00:27:38.602Z,100.00
2019-05-15T00:30:11.970Z,100.00
2019-05-15T00:32:40.401Z,100.00
2019-05-15T00:35:09.515Z,100.00
2019-05-15T00:37:38.939Z,100.00
2019-05-15T00:40:08.858Z,100.00
2019-05-15T00:42:38.423Z,100.00
2019-05-15T00:45:09.369Z,100.00
2019-05-15T00:47:39.787Z,100.00
2019-05-15T00:50:09.608Z,100.00
2019-05-15T00:52:39.151Z,100.00
2019-05-15T00:55:08.721Z,100.00
2019-05-15T00:57:39.351Z,100.00
2019-05-15T01:00:08.989Z,100.00
2019-05-15T01:02:38.770Z,100.00
2019-05-15T01:05:08.238Z,100.00
2019-05-15T01:07:38.908Z,100.00
2019-05-15T01:10:09.831Z,100.00
2019-05-15T01:12:38.242Z,100.00
2019-05-15T01:15:09.187Z,100.00
2019-05-15T01:17:39.198Z,100.00
2019-05-15T01:20:08.785Z,100.00
2019-05-15T01:22:39.289Z,100.00
2019-05-15T01:25:08.669Z,100.00
2019-05-15T01:27:38.770Z,100.00
2019-05-15T01:30:09.005Z,100.00
2019-05-15T01:32:39.374Z,100.00
2019-05-15T01:35:09.564Z,100.00
2019-05-15T01:37:39.120Z,100.00
2019-05-15T01:40:08.812Z,100.00
2019-05-15T01:42:38.618Z,100.00
2019-05-15T01:45:08.721Z,100.00
2019-05-15T01:47:38.850Z,100.00
2019-05-15T01:50:09.264Z,100.00
2019-05-15T01:52:38.918Z,100.00
2019-05-15T01:55:09.134Z,100.00
2019-05-15T01:57:38.374Z,100.00
2019-05-15T02:00:09.374Z,100.00
2019-05-15T02:02:39.094Z,100.00
2019-05-15T02:05:08.890Z,100.00
2019-05-15T02:07:39.103Z,100.00
2019-05-15T02:10:09.196Z,100.00
2019-05-15T02:12:38.702Z,100.00
2019-05-15T02:15:08.535Z,100.00
2019-05-15T02:17:39.219Z,100.00
2019-05-15T02:20:08.505Z,100.00
2019-05-15T02:22:41.971Z,100.00
2019-05-15T02:25:08.783Z,100.00
2019-05-15T02:27:39.340Z,100.00
2019-05-15T02:30:18.070Z,100.00
2019-05-15T02:32:39.544Z,100.00
2019-05-15T02:35:09.928Z,100.00
2019-05-15T02:37:40.830Z,100.00
2019-05-15T02:40:10.372Z,100.00
2019-05-15T02:42:40.378Z,100.00
2019-05-15T02:45:10.207Z,100.00
2019-05-15T02:47:39.613Z,100.00
2019-05-15T02:50:10.617Z,100.00
2019-05-15T02:52:44.492Z,100.00
2019-05-15T02:55:09.801Z,100.00
2019-05-15T02:57:39.283Z,100.00
2019-05-15T03:00:10.736Z,100.00
2019-05-15T03:02:41.133Z,100.00
2019-05-15T03:05:10.008Z,100.00
2019-05-15T03:07:40.253Z,100.00
2019-05-15T03:10:09.627Z,100.00
2019-05-15T03:12:40.815Z,100.00
2019-05-15T03:15:09.672Z,100.00
2019-05-15T03:17:40.295Z,100.00
2019-05-15T03:20:10.867Z,100.00
2019-05-15T03:22:40.500Z,100.00
2019-05-15T03:25:10.877Z,100.00
2019-05-15T03:27:39.963Z,100.00
2019-05-15T03:30:13.423Z,100.00
2019-05-15T03:32:46.378Z,100.00
2019-05-15T03:35:14.628Z,100.00
2019-05-15T03:37:40.189Z,100.00
2019-05-15T03:40:10.321Z,100.00
2019-05-15T03:42:39.822Z,100.00
2019-05-15T03:45:10.109Z,100.00
2019-05-15T03:47:40.137Z,100.00
2019-05-15T03:50:09.896Z,100.00
2019-05-15T03:52:39.445Z,100.00
2019-05-15T03:55:10.865Z,100.00
2019-05-15T03:57:40.073Z,100.00
2019-05-15T04:00:09.780Z,100.00
2019-05-15T04:02:39.560Z,100.00
2019-05-15T04:05:11.973Z,100.00
2019-05-15T04:07:39.724Z,100.00
2019-05-15T04:10:10.064Z,100.00
2019-05-15T04:12:40.430Z,100.00
2019-05-15T04:15:10.960Z,100.00
2019-05-15T04:17:40.370Z,100.00
2019-05-15T04:20:10.217Z,100.00
2019-05-15T04:22:40.116Z,100.00
2019-05-15T04:25:10.045Z,100.00
2019-05-15T04:27:40.904Z,100.00
2019-05-15T04:30:11.094Z,100.00
2019-05-15T04:32:40.612Z,100.00
2019-05-15T04:35:09.731Z,100.00
2019-05-15T04:37:40.843Z,100.00
2019-05-15T04:40:09.498Z,100.00
2019-05-15T04:42:39.782Z,100.00
2019-05-15T04:45:10.218Z,100.00
2019-05-15T04:47:39.801Z,100.00
2019-05-15T04:50:09.675Z,100.00
2019-05-15T04:52:42.438Z,100.00
2019-05-15T04:55:10.103Z,100.00
2019-05-15T04:57:40.034Z,100.00
2019-05-15T05:00:10.168Z,100.00
2019-05-15T05:02:40.026Z,100.00
2019-05-15T05:05:10.088Z,100.00
2019-05-15T05:07:39.541Z,100.00
2019-05-15T05:10:09.542Z,100.00
2019-05-15T05:12:41.510Z,100.00
2019-05-15T05:15:08.790Z,100.00
2019-05-15T05:17:39.254Z,100.00
2019-05-15T05:20:08.354Z,95.88
2019-05-15T05:22:39.338Z,91.11
2019-05-15T05:25:08.262Z,91.11
2019-05-15T05:27:38.442Z,89.43
2019-05-15T05:30:08.392Z,87.93
2019-05-15T05:32:39.030Z,86.74
2019-05-15T05:35:08.467Z,80.92
2019-05-15T05:37:39.019Z,71.36
2019-05-15T05:40:08.146Z,66.67
2019-05-15T05:42:38.926Z,66.88
2019-05-15T05:45:09.403Z,69.90
2019-05-15T05:47:38.280Z,71.17
2019-05-15T05:50:08.068Z,72.43
2019-05-15T05:52:38.881Z,74.04
2019-05-15T05:55:08.864Z,76.75
2019-05-15T05:57:38.333Z,78.25
2019-05-15T06:00:09.584Z,79.53
2019-05-15T06:02:47.374Z,79.91
2019-05-15T06:05:08.451Z,80.11
2019-05-15T06:07:38.750Z,79.86
2019-05-15T06:10:08.858Z,80.64
2019-05-15T06:12:38.841Z,81.44
2019-05-15T06:15:08.925Z,81.89
2019-05-15T06:17:39.154Z,81.97
2019-05-15T06:20:08.183Z,81.51
2019-05-15T06:22:38.661Z,83.07
2019-05-15T06:25:11.016Z,83.00
2019-05-15T06:27:38.985Z,84.23
2019-05-15T06:30:08.788Z,83.97
2019-05-15T06:32:39.826Z,85.14
2019-05-15T06:35:08.826Z,84.91
2019-05-15T06:37:39.534Z,84.30
2019-05-15T06:40:08.591Z,83.72
2019-05-15T06:42:39.426Z,83.79
2019-05-15T06:45:08.420Z,82.38
2019-05-15T06:47:39.226Z,82.41
2019-05-15T06:50:10.400Z,82.52
2019-05-15T06:52:38.832Z,80.29
2019-05-15T06:55:09.386Z,81.09
2019-05-15T06:57:39.652Z,80.00
2019-05-15T07:00:08.728Z,78.46
2019-05-15T07:02:38.219Z,78.33
2019-05-15T07:05:08.000Z,78.50
2019-05-15T07:07:38.719Z,77.96
2019-05-15T07:10:09.013Z,75.63
2019-05-15T07:12:39.269Z,73.64
2019-05-15T07:15:09.089Z,73.94
2019-05-15T07:17:39.184Z,73.37
2019-05-15T07:20:08.888Z,72.44
2019-05-15T07:22:39.064Z,72.16
2019-05-15T07:25:09.423Z,72.42
2019-05-15T07:27:38.979Z,69.92
2019-05-15T07:30:11.901Z,69.82
2019-05-15T07:32:40.085Z,70.80
2019-05-15T07:35:08.763Z,69.51
2019-05-15T07:37:38.757Z,66.98
2019-05-15T07:40:09.450Z,65.15
2019-05-15T07:42:38.888Z,65.31
2019-05-15T07:45:11.988Z,65.00
2019-05-15T07:47:40.417Z,64.18
2019-05-15T07:50:11.994Z,65.68
2019-05-15T07:52:40.802Z,66.61
2019-05-15T07:55:09.670Z,66.52
2019-05-15T07:57:39.504Z,66.60
2019-05-15T08:00:11.184Z,64.99
2019-05-15T08:02:40.007Z,65.42
2019-05-15T08:05:10.523Z,62.51
2019-05-15T08:07:39.597Z,61.52
2019-05-15T08:10:09.029Z,60.93
2019-05-15T08:12:39.163Z,59.90
2019-05-15T08:15:12.693Z,59.56
2019-05-15T08:18:00.129Z,59.21
2019-05-15T08:20:13.831Z,60.18
2019-05-15T08:22:45.766Z,59.25
2019-05-15T08:25:26.674Z,57.69
2019-05-15T08:27:43.151Z,57.51
2019-05-15T08:30:13.889Z,56.50
2019-05-15T08:32:42.372Z,57.69
2019-05-15T08:35:12.980Z,56.88
2019-05-15T08:37:41.376Z,56.73
2019-05-15T08:40:10.071Z,57.16
2019-05-15T08:42:41.701Z,57.31
2019-05-15T08:45:09.370Z,56.04
2019-05-15T08:47:38.632Z,57.06
2019-05-15T08:50:08.861Z,57.91
2019-05-15T08:52:39.345Z,57.72
2019-05-15T08:55:08.878Z,53.61
2019-05-15T08:57:38.591Z,53.99
2019-05-15T09:00:09.697Z,52.87
2019-05-15T09:02:45.110Z,53.11
2019-05-15T09:05:13.938Z,51.56
2019-05-15T09:07:42.447Z,49.97
2019-05-15T09:10:11.221Z,51.91
2019-05-15T09:12:39.696Z,51.96
2019-05-15T09:15:10.106Z,46.75
2019-05-15T09:17:39.944Z,46.35
2019-05-15T09:20:13.175Z,48.00
2019-05-15T09:22:41.854Z,46.89
2019-05-15T09:25:13.133Z,47.41
2019-05-15T09:27:42.335Z,48.18
2019-05-15T09:30:12.171Z,48.41
2019-05-15T09:32:41.337Z,46.87
2019-05-15T09:35:10.745Z,47.42
2019-05-15T09:37:39.148Z,46.14
2019-05-15T09:40:09.095Z,47.95
2019-05-15T09:42:38.858Z,47.87
2019-05-15T09:45:09.069Z,45.77
2019-05-15T09:47:39.451Z,46.36
2019-05-15T09:50:08.603Z,44.29
2019-05-15T09:52:38.844Z,43.98
2019-05-15T09:55:08.816Z,45.85
2019-05-15T09:57:38.570Z,44.23
2019-05-15T10:00:09.209Z,43.25
2019-05-15T10:02:39.321Z,45.58
2019-05-15T10:05:11.095Z,43.97
2019-05-15T10:07:40.356Z,43.33
2019-05-15T10:10:09.209Z,43.26
2019-05-15T10:12:38.737Z,43.37
2019-05-15T10:15:11.306Z,43.26
2019-05-15T10:17:39.267Z,42.85
2019-05-15T10:20:09.197Z,43.78
2019-05-15T10:22:37.930Z,44.05
2019-05-15T10:25:08.419Z,44.84
2019-05-15T10:27:39.560Z,45.99
2019-05-15T10:30:09.141Z,45.82
2019-05-15T10:32:39.573Z,45.00
2019-05-15T10:35:23.700Z,44.63
2019-05-15T10:37:39.233Z,45.03
2019-05-15T10:40:09.126Z,46.23
2019-05-15T10:42:39.712Z,46.61
2019-05-15T10:45:08.783Z,45.80
2019-05-15T10:47:38.740Z,45.61
2019-05-15T10:50:08.219Z,46.05
2019-05-15T10:52:38.242Z,44.60
2019-05-15T10:55:09.192Z,45.53
2019-05-15T10:57:43.057Z,45.13
2019-05-15T11:00:08.452Z,44.44
2019-05-15T11:02:39.416Z,43.81
2019-05-15T11:05:09.872Z,44.93
2019-05-15T11:07:39.410Z,44.62
2019-05-15T11:10:08.731Z,46.77
2019-05-15T11:12:37.581Z,46.37
2019-05-15T11:15:10.963Z,45.84
2019-05-15T11:17:38.543Z,46.08
2019-05-15T11:20:08.492Z,44.75
2019-05-15T11:22:42.375Z,45.38
2019-05-15T11:25:09.931Z,46.21
2019-05-15T11:27:39.060Z,46.41
2019-05-15T11:30:09.434Z,46.87
2019-05-15T11:32:39.183Z,46.91
2019-05-15T11:35:08.271Z,45.38
2019-05-15T11:37:43.927Z,45.41
2019-05-15T11:40:10.146Z,45.77
2019-05-15T11:42:39.447Z,45.47
2019-05-15T11:45:09.201Z,46.89
2019-05-15T11:47:39.522Z,46.16
2019-05-15T11:50:08.601Z,46.75
2019-05-15T11:52:40.167Z,47.45
2019-05-15T11:55:08.600Z,44.32
2019-05-15T11:57:43.621Z,45.20
2019-05-15T12:00:14.593Z,44.77
2019-05-15T12:02:38.662Z,44.75
2019-05-15T12:05:09.146Z,45.95
2019-05-15T12:07:38.259Z,46.53
2019-05-15T12:10:10.357Z,46.31
2019-05-15T12:12:38.473Z,46.06
2019-05-15T12:15:07.773Z,43.04
2019-05-15T12:17:38.846Z,43.81
2019-05-15T12:20:07.807Z,44.83
2019-05-15T12:22:38.946Z,45.43
2019-05-15T12:25:09.625Z,47.99
2019-05-15T12:27:40.343Z,46.22
2019-05-15T12:30:11.030Z,45.50
2019-05-15T12:32:40.463Z,44.66
2019-05-15T12:35:09.786Z,42.67
2019-05-15T12:37:40.109Z,43.99
2019-05-15T13:00:13.659Z,44.10
2019-05-15T13:02:42.067Z,45.84
2019-05-15T13:05:12.142Z,44.71
2019-05-15T13:07:40.544Z,45.48
2019-05-15T13:10:10.008Z,44.30
2019-05-15T13:12:54.107Z,44.12
2019-05-15T13:15:09.285Z,44.52
2019-05-15T13:17:38.893Z,44.36
2019-05-15T13:20:07.746Z,45.48
2019-05-15T13:22:38.735Z,44.15
2019-05-15T13:25:08.595Z,44.13
2019-05-15T13:27:38.252Z,44.81
2019-05-15T13:30:09.030Z,45.71
2019-05-15T13:32:40.704Z,42.70
2019-05-15T13:35:09.822Z,42.71
2019-05-15T13:37:39.059Z,44.58
2019-05-15T13:40:07.835Z,42.42
2019-05-15T13:42:38.767Z,41.41
2019-05-15T13:45:13.216Z,41.30
2019-05-15T13:47:38.891Z,43.14
2019-05-15T13:50:08.039Z,43.29
2019-05-15T13:52:39.038Z,42.85
2019-05-15T13:55:08.517Z,43.31
2019-05-15T13:57:38.285Z,42.22
2019-05-15T14:00:08.907Z,43.37
2019-05-15T14:02:38.722Z,40.93
2019-05-15T14:05:09.559Z,40.32
2019-05-15T14:07:48.635Z,41.04
2019-05-15T14:10:09.594Z,40.32
2019-05-15T14:12:38.514Z,39.44
2019-05-15T14:15:09.015Z,39.20
2019-05-15T14:17:38.003Z,37.99
2019-05-15T14:20:09.080Z,38.36
2019-05-15T14:22:38.981Z,37.67
2019-05-15T14:25:08.833Z,37.32
2019-05-15T14:27:39.804Z,37.61
2019-05-15T14:30:09.366Z,37.70
2019-05-15T14:32:39.414Z,37.05
2019-05-15T14:35:09.608Z,36.92
2019-05-15T14:37:38.115Z,36.82
2019-05-15T14:40:09.014Z,36.67
2019-05-15T14:42:39.711Z,35.93
2019-05-15T14:45:09.074Z,36.54
2019-05-15T14:47:38.859Z,36.47
2019-05-15T14:50:09.899Z,36.58
2019-05-15T14:52:38.879Z,35.63
2019-05-15T14:55:07.901Z,36.20
2019-05-15T14:57:39.192Z,36.44
2019-05-15T15:00:08.896Z,36.27
2019-05-15T15:02:38.978Z,36.86
2019-05-15T15:05:09.037Z,36.46
2019-05-15T15:07:38.367Z,35.90
2019-05-15T15:10:08.135Z,36.79
2019-05-15T15:12:39.746Z,35.98
2019-05-15T15:15:09.593Z,36.48
2019-05-15T15:17:38.622Z,37.65
2019-05-15T15:20:07.793Z,37.72
2019-05-15T15:22:36.190Z,34.17
2019-05-15T15:25:09.184Z,34.68
2019-05-15T15:27:38.706Z,36.19
2019-05-15T15:30:09.165Z,36.96
2019-05-15T15:32:38.275Z,37.66
2019-05-15T15:35:09.337Z,38.27
2019-05-15T15:37:38.486Z,38.48
2019-05-15T15:40:08.401Z,36.40
2019-05-15T15:42:39.449Z,34.33
2019-05-15T15:45:09.096Z,35.37
2019-05-15T15:47:38.883Z,34.94
2019-05-15T15:50:09.462Z,35.08
2019-05-15T15:52:38.814Z,35.56
2019-05-15T15:55:09.300Z,36.07
2019-05-15T15:57:39.571Z,36.26
2019-05-15T16:00:09.282Z,35.91
2019-05-15T16:02:40.666Z,35.50
2019-05-15T16:05:08.887Z,35.97
2019-05-15T16:07:38.045Z,36.32
2019-05-15T16:10:08.386Z,36.11
2019-05-15T16:12:38.892Z,36.49
2019-05-15T16:15:10.401Z,36.84
2019-05-15T16:17:38.919Z,37.33
2019-05-15T16:20:09.221Z,37.70
2019-05-15T16:22:38.318Z,38.46
2019-05-15T16:25:09.866Z,39.69
2019-05-15T16:27:38.586Z,39.67
2019-05-15T16:30:08.737Z,38.64
2019-05-15T16:32:38.915Z,38.74
2019-05-15T16:35:09.108Z,39.67
2019-05-15T16:37:38.982Z,39.45
2019-05-15T16:40:08.642Z,39.51
2019-05-15T16:42:38.488Z,40.29
2019-05-15T16:45:10.656Z,40.16
2019-05-15T16:47:39.530Z,40.81
2019-05-15T16:50:09.791Z,41.23
2019-05-15T16:52:39.044Z,41.58
2019-05-15T16:55:09.574Z,41.83
2019-05-15T16:57:38.728Z,41.84
2019-05-15T17:00:10.022Z,42.50
2019-05-15T17:02:40.159Z,42.20
2019-05-15T17:05:09.450Z,42.54
2019-05-15T17:07:38.752Z,42.51
2019-05-15T17:10:08.647Z,41.98
2019-05-15T17:12:38.738Z,42.19
2019-05-15T17:15:09.531Z,42.09
2019-05-15T17:17:38.763Z,42.58
2019-05-15T17:20:10.021Z,42.50
2019-05-15T17:22:38.715Z,42.38
2019-05-15T17:25:09.334Z,41.97
2019-05-15T17:27:37.488Z,41.63
2019-05-15T17:30:09.735Z,42.46
2019-05-15T17:32:39.263Z,42.49
2019-05-15T17:35:10.038Z,42.72
2019-05-15T17:37:38.830Z,42.80
2019-05-15T17:40:08.019Z,43.14
2019-05-15T17:42:39.084Z,42.83
2019-05-15T17:45:09.006Z,42.55
2019-05-15T17:47:38.744Z,43.25
2019-05-15T17:50:08.619Z,42.58
2019-05-15T17:52:38.845Z,43.78
2019-05-15T17:55:07.895Z,43.48
2019-05-15T17:57:38.789Z,45.06
2019-05-15T18:00:10.165Z,46.49
2019-05-15T18:02:38.119Z,47.72
2019-05-15T18:05:07.540Z,48.75
2019-05-15T18:07:35.979Z,48.62
2019-05-15T18:10:04.946Z,49.50
2019-05-15T18:12:33.360Z,49.26
2019-05-15T18:15:05.370Z,49.00
2019-05-15T18:17:33.779Z,48.62
2019-05-15T18:20:02.278Z,48.73
2019-05-15T18:22:30.956Z,48.00
2019-05-15T18:24:59.393Z,47.16
2019-05-15T18:27:27.789Z,47.67
2019-05-15T18:29:58.367Z,47.95
2019-05-15T18:32:28.485Z,48.16
2019-05-15T18:34:58.638Z,49.01
2019-05-15T18:37:28.237Z,47.62
2019-05-15T18:40:05.317Z,47.96
2019-05-15T18:42:29.247Z,47.59
2019-05-15T18:44:58.352Z,48.36
2019-05-15T18:47:28.034Z,49.17
2019-05-15T18:50:05.444Z,49.39
2019-05-15T18:52:28.759Z,52.44
2019-05-15T18:54:58.689Z,53.28
2019-05-15T18:57:26.961Z,54.29
2019-05-15T18:59:55.400Z,54.48
2019-05-15T19:02:23.878Z,54.80
2019-05-15T19:04:52.442Z,55.08
2019-05-15T19:07:20.844Z,54.88
2019-05-15T19:09:49.475Z,54.94
2019-05-15T19:12:18.096Z,55.89
2019-05-15T19:14:49.170Z,55.97
2019-05-15T19:17:18.583Z,55.77
2019-05-15T19:19:48.150Z,55.85
2019-05-15T19:22:19.049Z,56.23
2019-05-15T19:24:48.502Z,56.61
2019-05-15T19:27:18.652Z,56.56
2019-05-15T19:29:48.374Z,56.89
2019-05-15T19:32:17.726Z,57.16
2019-05-15T19:34:48.395Z,57.51
2019-05-15T19:37:18.378Z,58.12
2019-05-15T19:39:47.972Z,58.19
2019-05-15T19:42:18.179Z,58.34
2019-05-15T19:44:48.487Z,58.61
2019-05-15T19:47:18.583Z,59.33
2019-05-15T19:49:48.388Z,59.59
2019-05-15T19:52:17.892Z,59.83
2019-05-15T19:54:48.445Z,60.26
2019-05-15T19:57:18.556Z,60.59
2019-05-15T19:59:48.653Z,60.30
2019-05-15T20:02:17.986Z,60.30
2019-05-15T20:04:46.559Z,60.33
2019-05-15T20:07:14.986Z,60.26
2019-05-15T20:09:43.395Z,60.04
2019-05-15T20:12:11.835Z,60.18
2019-05-15T20:14:40.521Z,60.18
2019-05-15T20:17:08.967Z,60.41
2019-05-15T20:19:38.234Z,60.62
2019-05-15T20:22:08.035Z,60.97
2019-05-15T20:24:38.222Z,61.12
2019-05-15T20:27:08.567Z,61.67
2019-05-15T20:29:38.357Z,62.01
2019-05-15T20:32:07.100Z,62.28
2019-05-15T20:34:37.913Z,62.37
2019-05-15T20:37:06.174Z,62.72
2019-05-15T20:39:34.574Z,63.04
2019-05-15T20:42:03.002Z,63.21
2019-05-15T20:44:31.416Z,63.33
2019-05-15T20:46:59.858Z,63.51
2019-05-15T20:49:28.748Z,64.55
2019-05-15T20:51:58.243Z,64.42
2019-05-15T20:54:28.455Z,64.20
2019-05-15T20:56:58.338Z,64.07
2019-05-15T20:59:27.118Z,64.35
2019-05-15T21:01:55.545Z,63.98
2019-05-15T21:04:24.938Z,63.84
2019-05-15T21:06:53.643Z,64.01
2019-05-15T21:09:22.045Z,64.21
2019-05-15T21:11:50.469Z,64.16
2019-05-15T21:14:18.868Z,64.36
2019-05-15T21:16:48.476Z,64.44
2019-05-15T21:19:18.940Z,64.61
2019-05-15T21:21:47.947Z,65.11
2019-05-15T21:24:18.251Z,64.65
2019-05-15T21:26:48.938Z,64.54
2019-05-15T21:29:18.548Z,64.72
2019-05-15T21:31:49.042Z,64.84
2019-05-15T21:34:32.232Z,64.98
2019-05-15T21:36:48.304Z,65.28
2019-05-15T21:39:17.448Z,65.06
2019-05-15T21:41:45.850Z,64.96
2019-05-15T21:44:14.540Z,65.25
2019-05-15T21:46:43.007Z,65.24
2019-05-15T21:49:11.436Z,65.58
2019-05-15T21:51:39.832Z,65.64
2019-05-15T21:54:09.852Z,65.67
2019-05-15T21:56:38.731Z,65.76
2019-05-15T21:59:08.169Z,65.90
2019-05-15T22:01:39.501Z,66.05
2019-05-15T22:04:07.103Z,65.72
2019-05-15T22:06:35.577Z,66.16
2019-05-15T22:09:07.829Z,65.85
2019-05-15T22:11:36.696Z,65.91
2019-05-15T22:14:08.066Z,66.00
2019-05-15T22:16:36.678Z,66.20
2019-05-15T22:19:05.383Z,66.84
2019-05-15T22:21:33.783Z,67.15
2019-05-15T22:24:02.252Z,67.42
2019-05-15T22:26:30.687Z,68.17
2019-05-15T22:28:59.093Z,68.37
2019-05-15T22:31:27.699Z,68.86
2019-05-15T22:33:58.376Z,69.50
2019-05-15T22:36:28.073Z,70.33
2019-05-15T22:38:58.901Z,71.35
2019-05-15T22:41:28.478Z,73.98
2019-05-15T22:43:57.006Z,76.32
2019-05-15T22:46:25.441Z,77.72
2019-05-15T22:48:54.121Z,80.65
2019-05-15T22:51:22.549Z,83.91
2019-05-15T22:53:51.013Z,85.38
2019-05-15T22:56:19.437Z,86.99
2019-05-15T22:58:48.186Z,88.76
2019-05-15T23:01:18.723Z,90.17
2019-05-15T23:03:47.853Z,91.07
2019-05-15T23:06:17.855Z,92.80
2019-05-15T23:08:48.699Z,93.70
2019-05-15T23:11:18.292Z,95.58
2019-05-15T23:13:48.332Z,96.25
2019-05-15T23:16:18.243Z,96.80
2019-05-15T23:18:48.512Z,97.71
2019-05-15T23:21:18.334Z,97.79
2019-05-15T23:23:48.692Z,97.21
2019-05-15T23:26:17.106Z,96.17
2019-05-15T23:28:45.511Z,95.27
2019-05-15T23:31:13.937Z,93.43
2019-05-15T23:33:42.337Z,91.25
2019-05-15T23:36:10.763Z,90.73
2019-05-15T23:38:39.165Z,89.53
2019-05-15T23:41:08.224Z,87.89
2019-05-15T23:43:38.896Z,86.05
2019-05-15T23:46:07.995Z,85.50
2019-05-15T23:48:38.185Z,84.79
2019-05-15T23:51:08.536Z,84.28
2019-05-15T23:53:37.142Z,84.54
2019-05-15T23:56:05.568Z,85.07
2019-05-15T23:58:33.968Z,86.00
